• Join FlightAware (Why Join?)
  • Login
  • US Flag 
01:15AM EDT


 

Airport Tracker/Info


-or-


 

Live Flight TrackerFlight Track Log ✈ CTL14 ✈ 25-Apr-2013 ✈ KBAK - KBMI

Flight Track Log - Related Links

Times and Time Zones

All times are in EDT time to prevent confusion due to time zone crossing. See the CTL14 flight status page for this flight to view local times or setup timezone preferences in your user account.

Time Position Orientation Groundspeed Altitude Reporting Facility
EDT Latitude Longitude Course Direction KTS MPH feet Rate Location/Type
09:23PM 39.2833 -85.9000 360° North 124 143 1,400  Level Indianapolis TRACON
09:24PM 39.3000 -85.9000 360° North 115 132 2,100 1,140 Climbing Indianapolis TRACON
09:25PM 39.3217 -85.8783 38° Northeast 119 137 3,300 900 Climbing Indianapolis Center
09:26PM 39.3583 -85.8672 13° North 131 151 4,000 360 Climbing Indianapolis Center
09:27PM 39.4014 -85.8739 353° North 147 169 4,100  Climbing Indianapolis Center
09:28PM 39.4467 -85.8836 351° North 157 181 4,000 120 Descending Indianapolis Center
09:29PM 39.4744 -85.9289 308° West 159 183 4,400 600 Climbing Indianapolis Center
09:30PM 39.4919 -85.9708 298° West 142 163 5,300 780 Climbing Indianapolis Center
09:31PM 39.5072 -86.0175 293° West 138 159 6,000 300 Climbing Indianapolis Center
09:32PM 39.5283 -86.0778 294° West 152 175 6,000  Level Indianapolis Center
09:33PM 39.5486 -86.1317 296° West 160 184 6,000  Level Indianapolis Center
09:34PM 39.5686 -86.1858 296° West 163 188 6,000  Level Indianapolis Center
09:35PM 39.5886 -86.2397 296° West 164 189 6,000  Level Indianapolis Center
09:36PM 39.6089 -86.2936 296° West 164 189 6,000  Level Indianapolis Center
09:37PM 39.6281 -86.3478 295° West 164 189 6,100  Climbing Indianapolis Center
09:38PM 39.6500 -86.4000 299° West 165 190 6,000 -60 Descending Indianapolis TRACON
09:39PM 39.6667 -86.4500 293° West 163 188 6,000  Level Indianapolis TRACON
09:40PM 39.6833 -86.5000 293° West 159 183 6,000  Level Indianapolis TRACON
09:41PM 39.7000 -86.5500 293° West 162 186 6,000  Level Indianapolis TRACON
09:41PM 39.7058 -86.5619 302° West 161 185 6,000  Level Indianapolis Center
09:42PM 39.7242 -86.6156 294° West 161 185 6,000  Level Indianapolis Center
09:43PM 39.7419 -86.6675 294° West 158 182 6,000  Level Indianapolis Center
09:44PM 39.7600 -86.7206 294° West 158 182 6,000  Level Indianapolis Center
09:45PM 39.7781 -86.7733 294° West 159 183 6,100  Climbing Indianapolis Center
09:46PM 39.7953 -86.8250 293° West 156 180 6,100  Level Indianapolis Center
09:47PM 39.8125 -86.8772 293° West 157 181 6,100 -60 Level Indianapolis Center
09:48PM 39.8331 -86.9381 294° West 156 180 6,000 -60 Descending Indianapolis Center
09:49PM 39.8489 -86.9922 291° West 158 182 6,000  Level Indianapolis Center
09:50PM 39.8697 -87.0422 299° West 156 180 6,100  Climbing Indianapolis Center
09:51PM 39.8842 -87.0961 289° West 157 181 6,100  Level Indianapolis Center
09:52PM 39.9042 -87.1467 297° West 157 181 6,100 -60 Level Indianapolis Center
09:53PM 39.9222 -87.1983 295° West 156 180 6,000  Descending Indianapolis Center
09:54PM 39.9386 -87.2503 292° West 156 180 6,100  Climbing Indianapolis Center
09:55PM 39.9578 -87.3025 296° West 157 181 6,000 -60 Descending Indianapolis Center
09:56PM 39.9767 -87.3550 295° West 158 182 6,000  Level Indianapolis Center
09:57PM 39.9919 -87.4086 290° West 158 182 6,100  Climbing Indianapolis Center
09:58PM 40.0103 -87.4597 295° West 156 180 6,000 -60 Descending Indianapolis Center
09:59PM 40.0264 -87.5131 292° West 156 180 6,000  Level Indianapolis Center
10:00PM 40.0417 -87.5667 290° West 157 181 6,100  Climbing Indianapolis Center
10:01PM 40.0636 -87.6264 296° West 156 180 6,100  Level Indianapolis Center
10:02PM 40.0825 -87.6781 296° West 156 180 6,100  Level Indianapolis Center
10:03PM 40.0997 -87.7308 293° West 157 181 6,100 -60 Level Indianapolis Center
10:04PM 40.1181 -87.7831 295° West 157 181 6,000  Descending Indianapolis Center
10:06PM 40.1344 -87.8364 292° West 157 181 6,100  Climbing Indianapolis Center
10:07PM 40.1511 -87.8892 292° West 156 180 6,100  Level Indianapolis Center
10:07PM 40.1575 -87.9058 297° West 156 180 6,100  Level Chicago Center
10:08PM 40.1753 -87.9581 294° West 156 180 6,100  Level Chicago Center
10:09PM 40.1914 -88.0117 291° West 156 180 6,100 -60 Level Chicago Center
10:10PM 40.2114 -88.0617 298° West 153 176 6,000 -60 Descending Chicago Center
10:11PM 40.2292 -88.1156 293° West 158 182 6,000  Level Chicago Center
10:12PM 40.2464 -88.1667 294° West 156 180 6,100 60 Climbing Chicago Center
10:13PM 40.2675 -88.2308 293° West 159 183 6,200  Climbing Chicago Center
10:14PM 40.2817 -88.2850 289° West 158 182 6,100 -120 Descending Chicago Center
10:15PM 40.2958 -88.3394 289° West 159 183 6,000 -60 Descending Chicago Center
10:16PM 40.3150 -88.3908 296° West 159 183 6,000 -300 Level Chicago Center
10:17PM 40.3325 -88.4486 292° West 167 192 5,400 -600 Descending Chicago Center
10:18PM 40.3494 -88.5044 292° West 174 200 4,800 -600 Descending Chicago Center
10:19PM 40.3725 -88.5750 293° West 175 201 4,200 -540 Descending Chicago Center
10:20PM 40.3897 -88.6350 291° West 175 201 3,700 -420 Descending Chicago Center
10:21PM 40.4117 -88.6919 297° West 175 201 3,400 -420 Descending Chicago Center
10:22PM 40.4322 -88.7469 296° West 171 197 2,900 -480 Descending Chicago Center
10:23PM 40.4519 -88.8047 294° West 172 198 2,500 -600 Descending Chicago Center
10:24PM 40.4656 -88.8625 287° West 170 196 1,700 -540 Descending Chicago Center
10:25PM 40.4786 -88.9178 287° West 168 193 1,500 -240 Descending Chicago Center
10:27PM 40.4771 -88.9159 303° West  Level Estimated
10:34PM 40.4771 -88.9159 303° West  Level Estimated
10:35PM 40.4771 -88.9159 303° West  Level Estimated
10:36PM 40.4771 -88.9159 303° West  Level Estimated